sensor_id;sensor_type;location;lat;lon;timestamp;P1;durP1;ratioP1;P2;durP2;ratioP2
30287;SDS011;17103;48.316;11.558;2023-04-25T00:02:02;1.80;;;0.70;;
30287;SDS011;17103;48.316;11.558;2023-04-25T00:04:28;0.95;;;0.80;;
30287;SDS011;17103;48.316;11.558;2023-04-25T00:06:54;1.95;;;1.17;;
30287;SDS011;17103;48.316;11.558;2023-04-25T00:09:21;2.63;;;0.93;;
30287;SDS011;17103;48.316;11.558;2023-04-25T00:11:47;1.60;;;0.98;;
30287;SDS011;17103;48.316;11.558;2023-04-25T00:14:13;1.10;;;1.00;;
30287;SDS011;17103;48.316;11.558;2023-04-25T00:16:39;1.10;;;0.90;;
30287;SDS011;17103;48.316;11.558;2023-04-25T00:19:06;2.65;;;1.00;;
30287;SDS011;17103;48.316;11.558;2023-04-25T00:21:32;1.63;;;1.13;;
30287;SDS011;17103;48.316;11.558;2023-04-25T00:23:58;1.33;;;0.80;;
30287;SDS011;17103;48.316;11.558;2023-04-25T00:26:24;1.38;;;0.90;;
30287;SDS011;17103;48.316;11.558;2023-04-25T00:28:50;3.00;;;1.10;;
30287;SDS011;17103;48.316;11.558;2023-04-25T00:31:16;2.30;;;0.90;;
30287;SDS011;17103;48.316;11.558;2023-04-25T00:33:42;2.08;;;0.90;;
30287;SDS011;17103;48.316;11.558;2023-04-25T00:36:07;0.93;;;0.70;;
30287;SDS011;17103;48.316;11.558;2023-04-25T00:38:33;1.75;;;0.93;;
30287;SDS011;17103;48.316;11.558;2023-04-25T00:40:59;2.78;;;1.55;;
30287;SDS011;17103;48.316;11.558;2023-04-25T00:43:28;1.90;;;0.93;;
30287;SDS011;17103;48.316;11.558;2023-04-25T00:45:57;2.03;;;1.00;;
30287;SDS011;17103;48.316;11.558;2023-04-25T00:48:25;1.17;;;1.00;;
30287;SDS011;17103;48.316;11.558;2023-04-25T00:50:52;1.40;;;1.20;;
30287;SDS011;17103;48.316;11.558;2023-04-25T00:53:20;1.50;;;0.80;;
30287;SDS011;17103;48.316;11.558;2023-04-25T00:55:47;1.70;;;1.00;;
30287;SDS011;17103;48.316;11.558;2023-04-25T00:58:17;1.70;;;1.02;;
30287;SDS011;17103;48.316;11.558;2023-04-25T01:00:43;1.85;;;0.90;;
30287;SDS011;17103;48.316;11.558;2023-04-25T01:03:13;2.10;;;1.15;;
30287;SDS011;17103;48.316;11.558;2023-04-25T01:05:42;2.85;;;1.15;;
30287;SDS011;17103;48.316;11.558;2023-04-25T01:08:08;1.98;;;1.23;;
30287;SDS011;17103;48.316;11.558;2023-04-25T01:10:35;4.03;;;1.33;;
30287;SDS011;17103;48.316;11.558;2023-04-25T01:13:01;3.15;;;0.93;;
30287;SDS011;17103;48.316;11.558;2023-04-25T01:15:27;1.83;;;1.25;;
30287;SDS011;17103;48.316;11.558;2023-04-25T01:17:53;1.63;;;1.10;;
30287;SDS011;17103;48.316;11.558;2023-04-25T01:20:23;1.48;;;1.05;;
30287;SDS011;17103;48.316;11.558;2023-04-25T01:22:52;1.75;;;1.02;;
30287;SDS011;17103;48.316;11.558;2023-04-25T01:25:20;1.40;;;1.00;;
30287;SDS011;17103;48.316;11.558;2023-04-25T01:27:46;1.90;;;0.82;;
30287;SDS011;17103;48.316;11.558;2023-04-25T01:30:12;1.67;;;0.93;;
30287;SDS011;17103;48.316;11.558;2023-04-25T01:32:38;1.85;;;0.90;;
30287;SDS011;17103;48.316;11.558;2023-04-25T01:35:08;2.30;;;1.13;;
30287;SDS011;17103;48.316;11.558;2023-04-25T01:37:42;2.10;;;1.25;;
30287;SDS011;17103;48.316;11.558;2023-04-25T01:40:08;3.63;;;1.10;;
30287;SDS011;17103;48.316;11.558;2023-04-25T01:42:36;2.33;;;0.85;;
30287;SDS011;17103;48.316;11.558;2023-04-25T01:45:04;5.43;;;1.15;;
30287;SDS011;17103;48.316;11.558;2023-04-25T01:47:31;1.00;;;0.60;;
30287;SDS011;17103;48.316;11.558;2023-04-25T01:49:57;1.48;;;1.33;;
30287;SDS011;17103;48.316;11.558;2023-04-25T01:52:22;2.53;;;0.90;;
30287;SDS011;17103;48.316;11.558;2023-04-25T01:54:48;1.05;;;0.90;;
30287;SDS011;17103;48.316;11.558;2023-04-25T01:57:15;2.15;;;0.80;;
30287;SDS011;17103;48.316;11.558;2023-04-25T01:59:41;3.97;;;1.15;;
30287;SDS011;17103;48.316;11.558;2023-04-25T02:02:07;2.35;;;0.95;;
30287;SDS011;17103;48.316;11.558;2023-04-25T02:04:33;1.70;;;0.95;;
30287;SDS011;17103;48.316;11.558;2023-04-25T02:06:59;1.60;;;1.10;;
30287;SDS011;17103;48.316;11.558;2023-04-25T02:09:24;1.48;;;1.00;;
30287;SDS011;17103;48.316;11.558;2023-04-25T02:11:50;2.75;;;1.00;;
30287;SDS011;17103;48.316;11.558;2023-04-25T02:14:16;2.50;;;1.05;;
30287;SDS011;17103;48.316;11.558;2023-04-25T02:16:41;1.65;;;0.90;;
30287;SDS011;17103;48.316;11.558;2023-04-25T02:19:08;1.52;;;0.82;;
30287;SDS011;17103;48.316;11.558;2023-04-25T02:21:35;1.83;;;1.02;;
30287;SDS011;17103;48.316;11.558;2023-04-25T02:24:01;1.58;;;0.80;;
30287;SDS011;17103;48.316;11.558;2023-04-25T02:26:27;1.58;;;1.23;;
30287;SDS011;17103;48.316;11.558;2023-04-25T02:28:53;1.40;;;1.00;;
30287;SDS011;17103;48.316;11.558;2023-04-25T02:31:19;1.92;;;1.10;;
30287;SDS011;17103;48.316;11.558;2023-04-25T02:33:44;1.77;;;0.98;;
30287;SDS011;17103;48.316;11.558;2023-04-25T02:36:10;2.83;;;0.82;;
30287;SDS011;17103;48.316;11.558;2023-04-25T02:38:36;2.40;;;1.60;;
30287;SDS011;17103;48.316;11.558;2023-04-25T02:41:02;2.10;;;1.33;;
30287;SDS011;17103;48.316;11.558;2023-04-25T02:43:27;1.80;;;0.77;;
30287;SDS011;17103;48.316;11.558;2023-04-25T02:45:53;1.60;;;1.15;;
30287;SDS011;17103;48.316;11.558;2023-04-25T02:48:19;2.35;;;0.98;;
30287;SDS011;17103;48.316;11.558;2023-04-25T02:50:44;3.03;;;1.25;;
30287;SDS011;17103;48.316;11.558;2023-04-25T02:53:10;2.65;;;1.20;;
30287;SDS011;17103;48.316;11.558;2023-04-25T02:55:36;2.42;;;1.00;;
30287;SDS011;17103;48.316;11.558;2023-04-25T02:58:01;1.60;;;0.95;;
30287;SDS011;17103;48.316;11.558;2023-04-25T03:00:27;1.23;;;0.93;;
30287;SDS011;17103;48.316;11.558;2023-04-25T03:02:53;1.85;;;1.20;;
30287;SDS011;17103;48.316;11.558;2023-04-25T03:05:18;2.08;;;0.95;;
30287;SDS011;17103;48.316;11.558;2023-04-25T03:07:44;1.83;;;0.90;;
30287;SDS011;17103;48.316;11.558;2023-04-25T03:10:11;1.65;;;0.90;;
30287;SDS011;17103;48.316;11.558;2023-04-25T03:12:37;1.70;;;0.80;;
30287;SDS011;17103;48.316;11.558;2023-04-25T03:15:04;2.47;;;0.93;;
30287;SDS011;17103;48.316;11.558;2023-04-25T03:17:30;1.85;;;0.98;;
30287;SDS011;17103;48.316;11.558;2023-04-25T03:19:57;1.55;;;1.02;;
30287;SDS011;17103;48.316;11.558;2023-04-25T03:22:22;2.17;;;1.23;;
30287;SDS011;17103;48.316;11.558;2023-04-25T03:24:49;3.78;;;1.23;;
30287;SDS011;17103;48.316;11.558;2023-04-25T03:27:15;2.78;;;1.27;;
30287;SDS011;17103;48.316;11.558;2023-04-25T03:29:41;3.08;;;1.63;;
30287;SDS011;17103;48.316;11.558;2023-04-25T03:32:07;6.28;;;2.40;;
30287;SDS011;17103;48.316;11.558;2023-04-25T03:34:33;3.03;;;1.70;;
30287;SDS011;17103;48.316;11.558;2023-04-25T03:36:58;6.93;;;2.92;;
30287;SDS011;17103;48.316;11.558;2023-04-25T03:39:25;11.52;;;4.28;;
30287;SDS011;17103;48.316;11.558;2023-04-25T03:41:50;11.75;;;5.03;;
30287;SDS011;17103;48.316;11.558;2023-04-25T03:44:16;7.18;;;3.85;;
30287;SDS011;17103;48.316;11.558;2023-04-25T03:46:41;3.38;;;1.60;;
30287;SDS011;17103;48.316;11.558;2023-04-25T03:49:07;3.45;;;1.48;;
30287;SDS011;17103;48.316;11.558;2023-04-25T03:51:33;2.92;;;1.55;;
30287;SDS011;17103;48.316;11.558;2023-04-25T03:53:58;4.03;;;1.55;;
30287;SDS011;17103;48.316;11.558;2023-04-25T03:56:24;5.20;;;2.08;;
30287;SDS011;17103;48.316;11.558;2023-04-25T03:58:50;8.77;;;2.95;;
30287;SDS011;17103;48.316;11.558;2023-04-25T04:01:15;5.88;;;2.45;;
30287;SDS011;17103;48.316;11.558;2023-04-25T04:03:41;5.05;;;2.63;;
30287;SDS011;17103;48.316;11.558;2023-04-25T04:06:07;4.47;;;2.20;;
30287;SDS011;17103;48.316;11.558;2023-04-25T04:08:33;2.72;;;1.85;;
30287;SDS011;17103;48.316;11.558;2023-04-25T04:11:00;5.63;;;2.58;;
30287;SDS011;17103;48.316;11.558;2023-04-25T04:13:27;7.22;;;2.20;;
30287;SDS011;17103;48.316;11.558;2023-04-25T04:15:57;5.72;;;3.03;;
30287;SDS011;17103;48.316;11.558;2023-04-25T04:18:23;4.13;;;1.70;;
30287;SDS011;17103;48.316;11.558;2023-04-25T04:20:49;2.67;;;1.52;;
30287;SDS011;17103;48.316;11.558;2023-04-25T04:23:14;2.00;;;1.38;;
30287;SDS011;17103;48.316;11.558;2023-04-25T04:25:40;1.67;;;1.13;;
30287;SDS011;17103;48.316;11.558;2023-04-25T04:28:06;2.75;;;1.10;;
30287;SDS011;17103;48.316;11.558;2023-04-25T04:30:32;2.50;;;1.05;;
30287;SDS011;17103;48.316;11.558;2023-04-25T04:33:01;3.38;;;1.08;;
30287;SDS011;17103;48.316;11.558;2023-04-25T04:35:28;2.50;;;1.08;;
30287;SDS011;17103;48.316;11.558;2023-04-25T04:37:54;1.88;;;1.27;;
30287;SDS011;17103;48.316;11.558;2023-04-25T04:40:21;1.95;;;1.15;;
30287;SDS011;17103;48.316;11.558;2023-04-25T04:42:47;2.40;;;1.30;;
30287;SDS011;17103;48.316;11.558;2023-04-25T04:45:13;1.98;;;0.90;;
30287;SDS011;17103;48.316;11.558;2023-04-25T04:47:39;2.28;;;1.20;;
30287;SDS011;17103;48.316;11.558;2023-04-25T04:50:09;2.70;;;0.70;;
30287;SDS011;17103;48.316;11.558;2023-04-25T04:52:35;2.65;;;1.05;;
30287;SDS011;17103;48.316;11.558;2023-04-25T04:55:02;2.78;;;0.80;;
30287;SDS011;17103;48.316;11.558;2023-04-25T04:57:29;1.92;;;1.25;;
30287;SDS011;17103;48.316;11.558;2023-04-25T04:59:54;2.35;;;0.70;;
30287;SDS011;17103;48.316;11.558;2023-04-25T05:02:20;4.50;;;1.42;;
30287;SDS011;17103;48.316;11.558;2023-04-25T05:04:46;1.00;;;0.73;;
30287;SDS011;17103;48.316;11.558;2023-04-25T05:07:11;2.15;;;0.95;;
30287;SDS011;17103;48.316;11.558;2023-04-25T05:09:38;2.10;;;1.00;;
30287;SDS011;17103;48.316;11.558;2023-04-25T05:12:04;7.80;;;1.60;;
30287;SDS011;17103;48.316;11.558;2023-04-25T05:14:31;2.72;;;0.85;;
30287;SDS011;17103;48.316;11.558;2023-04-25T05:16:57;3.00;;;0.93;;
30287;SDS011;17103;48.316;11.558;2023-04-25T05:19:23;2.22;;;0.93;;
30287;SDS011;17103;48.316;11.558;2023-04-25T05:21:50;2.50;;;1.33;;
30287;SDS011;17103;48.316;11.558;2023-04-25T05:24:15;4.60;;;1.35;;
30287;SDS011;17103;48.316;11.558;2023-04-25T05:26:41;3.80;;;1.30;;
30287;SDS011;17103;48.316;11.558;2023-04-25T05:29:06;1.52;;;0.90;;
30287;SDS011;17103;48.316;11.558;2023-04-25T05:31:32;1.70;;;0.85;;
30287;SDS011;17103;48.316;11.558;2023-04-25T05:34:00;2.20;;;1.02;;
30287;SDS011;17103;48.316;11.558;2023-04-25T05:36:26;1.25;;;1.13;;
30287;SDS011;17103;48.316;11.558;2023-04-25T05:38:52;4.13;;;1.10;;
30287;SDS011;17103;48.316;11.558;2023-04-25T05:41:17;2.85;;;0.85;;
30287;SDS011;17103;48.316;11.558;2023-04-25T05:43:43;1.40;;;0.85;;
30287;SDS011;17103;48.316;11.558;2023-04-25T05:46:12;1.00;;;0.70;;
30287;SDS011;17103;48.316;11.558;2023-04-25T05:48:38;1.60;;;0.82;;
30287;SDS011;17103;48.316;11.558;2023-04-25T05:51:04;4.63;;;1.13;;
30287;SDS011;17103;48.316;11.558;2023-04-25T05:53:30;1.50;;;0.73;;
30287;SDS011;17103;48.316;11.558;2023-04-25T05:55:56;1.52;;;1.02;;
30287;SDS011;17103;48.316;11.558;2023-04-25T05:58:21;1.70;;;1.20;;
30287;SDS011;17103;48.316;11.558;2023-04-25T06:00:47;4.25;;;1.00;;
30287;SDS011;17103;48.316;11.558;2023-04-25T06:03:13;1.02;;;0.90;;
30287;SDS011;17103;48.316;11.558;2023-04-25T06:05:41;1.98;;;1.00;;
30287;SDS011;17103;48.316;11.558;2023-04-25T06:08:08;3.67;;;1.15;;
30287;SDS011;17103;48.316;11.558;2023-04-25T06:10:34;1.92;;;1.20;;
30287;SDS011;17103;48.316;11.558;2023-04-25T06:13:00;3.20;;;1.13;;
30287;SDS011;17103;48.316;11.558;2023-04-25T06:15:26;2.25;;;1.00;;
30287;SDS011;17103;48.316;11.558;2023-04-25T06:17:52;1.48;;;1.20;;
30287;SDS011;17103;48.316;11.558;2023-04-25T06:20:17;1.85;;;0.95;;
30287;SDS011;17103;48.316;11.558;2023-04-25T06:22:44;2.67;;;1.10;;
30287;SDS011;17103;48.316;11.558;2023-04-25T06:25:10;2.78;;;1.27;;
30287;SDS011;17103;48.316;11.558;2023-04-25T06:27:35;2.22;;;1.42;;
30287;SDS011;17103;48.316;11.558;2023-04-25T06:30:01;2.47;;;1.13;;
30287;SDS011;17103;48.316;11.558;2023-04-25T06:32:26;2.88;;;1.50;;
30287;SDS011;17103;48.316;11.558;2023-04-25T06:34:54;2.75;;;1.25;;
30287;SDS011;17103;48.316;11.558;2023-04-25T06:37:20;3.20;;;1.73;;
30287;SDS011;17103;48.316;11.558;2023-04-25T06:39:46;5.10;;;1.50;;
30287;SDS011;17103;48.316;11.558;2023-04-25T06:42:11;1.30;;;0.93;;
30287;SDS011;17103;48.316;11.558;2023-04-25T06:44:37;3.67;;;1.75;;
30287;SDS011;17103;48.316;11.558;2023-04-25T06:47:02;3.85;;;1.23;;
30287;SDS011;17103;48.316;11.558;2023-04-25T06:49:28;5.13;;;1.30;;
30287;SDS011;17103;48.316;11.558;2023-04-25T06:51:54;2.38;;;1.40;;
30287;SDS011;17103;48.316;11.558;2023-04-25T06:54:19;2.47;;;1.10;;
30287;SDS011;17103;48.316;11.558;2023-04-25T06:56:45;5.68;;;1.00;;
30287;SDS011;17103;48.316;11.558;2023-04-25T06:59:11;1.52;;;0.60;;
30287;SDS011;17103;48.316;11.558;2023-04-25T07:01:36;3.40;;;1.10;;
30287;SDS011;17103;48.316;11.558;2023-04-25T07:04:02;1.73;;;0.75;;
30287;SDS011;17103;48.316;11.558;2023-04-25T07:06:28;2.38;;;0.70;;
30287;SDS011;17103;48.316;11.558;2023-04-25T07:08:54;1.80;;;0.85;;
30287;SDS011;17103;48.316;11.558;2023-04-25T07:11:20;1.90;;;0.82;;
30287;SDS011;17103;48.316;11.558;2023-04-25T07:13:46;1.45;;;1.05;;
30287;SDS011;17103;48.316;11.558;2023-04-25T07:16:11;3.03;;;1.33;;
30287;SDS011;17103;48.316;11.558;2023-04-25T07:18:37;2.75;;;1.13;;
30287;SDS011;17103;48.316;11.558;2023-04-25T07:21:03;3.47;;;1.00;;
30287;SDS011;17103;48.316;11.558;2023-04-25T07:23:28;1.75;;;0.85;;
30287;SDS011;17103;48.316;11.558;2023-04-25T07:25:55;2.42;;;1.13;;
30287;SDS011;17103;48.316;11.558;2023-04-25T07:28:21;3.15;;;1.33;;
30287;SDS011;17103;48.316;11.558;2023-04-25T07:30:46;1.77;;;1.00;;
30287;SDS011;17103;48.316;11.558;2023-04-25T07:33:12;4.55;;;1.60;;
30287;SDS011;17103;48.316;11.558;2023-04-25T07:35:38;3.80;;;1.20;;
30287;SDS011;17103;48.316;11.558;2023-04-25T07:38:03;3.38;;;1.10;;
30287;SDS011;17103;48.316;11.558;2023-04-25T07:40:31;3.33;;;1.45;;
30287;SDS011;17103;48.316;11.558;2023-04-25T07:42:57;3.75;;;1.38;;
30287;SDS011;17103;48.316;11.558;2023-04-25T07:45:22;2.60;;;1.42;;
30287;SDS011;17103;48.316;11.558;2023-04-25T07:47:49;1.65;;;1.10;;
30287;SDS011;17103;48.316;11.558;2023-04-25T07:50:15;3.42;;;1.60;;
30287;SDS011;17103;48.316;11.558;2023-04-25T07:52:40;2.67;;;1.30;;
30287;SDS011;17103;48.316;11.558;2023-04-25T07:55:06;2.53;;;1.23;;
30287;SDS011;17103;48.316;11.558;2023-04-25T07:57:32;2.70;;;1.33;;
30287;SDS011;17103;48.316;11.558;2023-04-25T07:59:57;1.92;;;1.00;;
30287;SDS011;17103;48.316;11.558;2023-04-25T08:02:23;3.28;;;1.45;;
30287;SDS011;17103;48.316;11.558;2023-04-25T08:04:51;4.28;;;1.40;;
30287;SDS011;17103;48.316;11.558;2023-04-25T08:07:16;2.72;;;1.55;;
30287;SDS011;17103;48.316;11.558;2023-04-25T08:09:42;3.50;;;1.67;;
30287;SDS011;17103;48.316;11.558;2023-04-25T08:12:07;3.75;;;1.58;;
30287;SDS011;17103;48.316;11.558;2023-04-25T08:14:33;4.40;;;1.77;;
30287;SDS011;17103;48.316;11.558;2023-04-25T08:17:03;2.17;;;1.10;;
30287;SDS011;17103;48.316;11.558;2023-04-25T08:19:29;1.80;;;1.30;;
30287;SDS011;17103;48.316;11.558;2023-04-25T08:21:56;1.83;;;1.25;;
30287;SDS011;17103;48.316;11.558;2023-04-25T08:24:22;3.58;;;1.45;;
30287;SDS011;17103;48.316;11.558;2023-04-25T08:26:48;2.55;;;1.02;;
30287;SDS011;17103;48.316;11.558;2023-04-25T08:29:14;2.63;;;1.00;;
30287;SDS011;17103;48.316;11.558;2023-04-25T08:31:40;2.33;;;1.35;;
30287;SDS011;17103;48.316;11.558;2023-04-25T08:34:07;3.40;;;1.27;;
30287;SDS011;17103;48.316;11.558;2023-04-25T08:36:32;3.47;;;1.65;;
30287;SDS011;17103;48.316;11.558;2023-04-25T08:38:58;1.95;;;1.10;;
30287;SDS011;17103;48.316;11.558;2023-04-25T08:41:25;1.88;;;1.00;;
30287;SDS011;17103;48.316;11.558;2023-04-25T08:43:53;4.15;;;1.13;;
30287;SDS011;17103;48.316;11.558;2023-04-25T08:46:20;2.90;;;1.38;;
30287;SDS011;17103;48.316;11.558;2023-04-25T08:48:48;1.35;;;0.80;;
30287;SDS011;17103;48.316;11.558;2023-04-25T08:51:23;1.85;;;0.73;;
30287;SDS011;17103;48.316;11.558;2023-04-25T08:53:51;1.92;;;0.70;;
30287;SDS011;17103;48.316;11.558;2023-04-25T08:56:17;1.80;;;0.93;;
30287;SDS011;17103;48.316;11.558;2023-04-25T08:58:45;5.22;;;0.95;;
30287;SDS011;17103;48.316;11.558;2023-04-25T09:01:13;1.73;;;0.90;;
30287;SDS011;17103;48.316;11.558;2023-04-25T09:03:38;1.95;;;1.02;;
30287;SDS011;17103;48.316;11.558;2023-04-25T09:06:04;4.07;;;1.48;;
30287;SDS011;17103;48.316;11.558;2023-04-25T09:08:30;1.80;;;0.90;;
30287;SDS011;17103;48.316;11.558;2023-04-25T09:10:56;3.03;;;1.50;;
30287;SDS011;17103;48.316;11.558;2023-04-25T09:13:25;2.38;;;0.98;;
30287;SDS011;17103;48.316;11.558;2023-04-25T09:15:57;1.33;;;0.73;;
30287;SDS011;17103;48.316;11.558;2023-04-25T09:18:23;1.63;;;0.90;;
30287;SDS011;17103;48.316;11.558;2023-04-25T09:20:53;2.30;;;0.98;;
30287;SDS011;17103;48.316;11.558;2023-04-25T09:23:29;3.35;;;2.08;;
30287;SDS011;17103;48.316;11.558;2023-04-25T09:25:54;2.65;;;0.90;;
30287;SDS011;17103;48.316;11.558;2023-04-25T09:28:24;1.60;;;1.00;;
30287;SDS011;17103;48.316;11.558;2023-04-25T09:30:56;1.60;;;1.13;;
30287;SDS011;17103;48.316;11.558;2023-04-25T09:33:32;2.13;;;1.15;;
30287;SDS011;17103;48.316;11.558;2023-04-25T09:36:07;2.50;;;0.90;;
30287;SDS011;17103;48.316;11.558;2023-04-25T09:38:40;2.65;;;0.70;;
30287;SDS011;17103;48.316;11.558;2023-04-25T09:41:07;1.30;;;0.55;;
30287;SDS011;17103;48.316;11.558;2023-04-25T09:43:34;1.35;;;0.80;;
30287;SDS011;17103;48.316;11.558;2023-04-25T09:46:00;1.52;;;0.75;;
30287;SDS011;17103;48.316;11.558;2023-04-25T09:48:27;2.05;;;0.85;;
30287;SDS011;17103;48.316;11.558;2023-04-25T09:51:09;1.80;;;0.85;;
30287;SDS011;17103;48.316;11.558;2023-04-25T09:53:38;1.80;;;0.80;;
30287;SDS011;17103;48.316;11.558;2023-04-25T09:56:08;4.10;;;1.17;;
30287;SDS011;17103;48.316;11.558;2023-04-25T09:58:36;2.10;;;0.95;;
30287;SDS011;17103;48.316;11.558;2023-04-25T10:01:06;3.45;;;1.10;;
30287;SDS011;17103;48.316;11.558;2023-04-25T10:03:33;1.05;;;0.77;;
30287;SDS011;17103;48.316;11.558;2023-04-25T10:06:01;3.47;;;1.65;;
30287;SDS011;17103;48.316;11.558;2023-04-25T10:08:38;4.15;;;1.63;;
30287;SDS011;17103;48.316;11.558;2023-04-25T10:11:04;1.25;;;0.85;;
30287;SDS011;17103;48.316;11.558;2023-04-25T10:13:32;1.30;;;0.63;;
30287;SDS011;17103;48.316;11.558;2023-04-25T10:16:00;2.33;;;0.90;;
30287;SDS011;17103;48.316;11.558;2023-04-25T10:18:27;4.22;;;1.00;;
30287;SDS011;17103;48.316;11.558;2023-04-25T10:20:54;3.30;;;0.95;;
30287;SDS011;17103;48.316;11.558;2023-04-25T10:23:22;1.85;;;0.88;;
30287;SDS011;17103;48.316;11.558;2023-04-25T10:25:49;1.05;;;0.68;;
30287;SDS011;17103;48.316;11.558;2023-04-25T10:28:16;3.17;;;1.30;;
30287;SDS011;17103;48.316;11.558;2023-04-25T10:33:38;1.00;;;0.50;;
30287;SDS011;17103;48.316;11.558;2023-04-25T10:36:09;1.45;;;0.60;;
30287;SDS011;17103;48.316;11.558;2023-04-25T10:38:40;1.08;;;0.57;;
30287;SDS011;17103;48.316;11.558;2023-04-25T10:41:08;0.98;;;0.50;;
30287;SDS011;17103;48.316;11.558;2023-04-25T10:48:55;1.65;;;0.50;;
30287;SDS011;17103;48.316;11.558;2023-04-25T10:56:20;2.47;;;0.73;;
30287;SDS011;17103;48.316;11.558;2023-04-25T10:58:47;1.95;;;1.23;;
30287;SDS011;17103;48.316;11.558;2023-04-25T11:01:13;1.38;;;0.90;;
30287;SDS011;17103;48.316;11.558;2023-04-25T11:03:41;2.25;;;1.05;;
30287;SDS011;17103;48.316;11.558;2023-04-25T11:06:22;1.65;;;1.10;;
30287;SDS011;17103;48.316;11.558;2023-04-25T11:08:53;3.28;;;1.60;;
30287;SDS011;17103;48.316;11.558;2023-04-25T11:11:19;1.60;;;0.88;;
30287;SDS011;17103;48.316;11.558;2023-04-25T11:13:48;1.70;;;0.80;;
30287;SDS011;17103;48.316;11.558;2023-04-25T11:16:15;2.55;;;1.05;;
30287;SDS011;17103;48.316;11.558;2023-04-25T11:18:44;2.33;;;1.50;;
30287;SDS011;17103;48.316;11.558;2023-04-25T11:21:10;1.98;;;0.75;;
30287;SDS011;17103;48.316;11.558;2023-04-25T11:23:36;2.05;;;1.08;;
30287;SDS011;17103;48.316;11.558;2023-04-25T11:26:02;2.90;;;2.00;;
30287;SDS011;17103;48.316;11.558;2023-04-25T11:28:29;1.70;;;0.82;;
30287;SDS011;17103;48.316;11.558;2023-04-25T11:30:55;1.48;;;0.70;;
30287;SDS011;17103;48.316;11.558;2023-04-25T11:33:24;2.63;;;1.83;;
30287;SDS011;17103;48.316;11.558;2023-04-25T11:35:54;2.33;;;1.35;;
30287;SDS011;17103;48.316;11.558;2023-04-25T11:38:21;2.95;;;0.70;;
30287;SDS011;17103;48.316;11.558;2023-04-25T11:40:56;2.85;;;1.08;;
30287;SDS011;17103;48.316;11.558;2023-04-25T11:43:22;3.72;;;1.77;;
30287;SDS011;17103;48.316;11.558;2023-04-25T11:45:48;3.25;;;1.60;;
30287;SDS011;17103;48.316;11.558;2023-04-25T11:48:15;3.53;;;1.77;;
30287;SDS011;17103;48.316;11.558;2023-04-25T11:50:41;2.75;;;0.80;;
30287;SDS011;17103;48.316;11.558;2023-04-25T11:53:07;2.60;;;1.20;;
30287;SDS011;17103;48.316;11.558;2023-04-25T11:55:33;1.95;;;1.40;;
30287;SDS011;17103;48.316;11.558;2023-04-25T11:58:00;1.80;;;1.40;;
30287;SDS011;17103;48.316;11.558;2023-04-25T12:00:27;2.50;;;1.20;;
30287;SDS011;17103;48.316;11.558;2023-04-25T12:02:53;1.10;;;0.75;;
30287;SDS011;17103;48.316;11.558;2023-04-25T12:05:21;0.93;;;0.70;;
30287;SDS011;17103;48.316;11.558;2023-04-25T12:07:50;0.77;;;0.60;;
30287;SDS011;17103;48.316;11.558;2023-04-25T12:10:16;0.80;;;0.65;;
30287;SDS011;17103;48.316;11.558;2023-04-25T12:12:44;1.65;;;1.20;;
30287;SDS011;17103;48.316;11.558;2023-04-25T12:17:49;1.05;;;0.70;;
30287;SDS011;17103;48.316;11.558;2023-04-25T12:20:19;1.85;;;0.73;;
30287;SDS011;17103;48.316;11.558;2023-04-25T12:22:48;2.53;;;1.00;;
30287;SDS011;17103;48.316;11.558;2023-04-25T12:25:34;2.92;;;1.00;;
30287;SDS011;17103;48.316;11.558;2023-04-25T12:28:21;1.15;;;0.70;;
30287;SDS011;17103;48.316;11.558;2023-04-25T12:33:21;1.13;;;0.65;;
30287;SDS011;17103;48.316;11.558;2023-04-25T12:35:47;0.85;;;0.50;;
30287;SDS011;17103;48.316;11.558;2023-04-25T12:40:52;0.98;;;0.50;;
30287;SDS011;17103;48.316;11.558;2023-04-25T12:43:19;1.00;;;0.45;;
30287;SDS011;17103;48.316;11.558;2023-04-25T12:45:47;1.08;;;0.80;;
30287;SDS011;17103;48.316;11.558;2023-04-25T12:48:18;1.02;;;0.50;;
30287;SDS011;17103;48.316;11.558;2023-04-25T12:50:45;1.08;;;0.50;;
30287;SDS011;17103;48.316;11.558;2023-04-25T12:53:17;1.77;;;0.73;;
30287;SDS011;17103;48.316;11.558;2023-04-25T12:55:44;1.85;;;0.70;;
30287;SDS011;17103;48.316;11.558;2023-04-25T12:58:17;1.50;;;0.70;;
30287;SDS011;17103;48.316;11.558;2023-04-25T13:00:43;1.20;;;0.52;;
30287;SDS011;17103;48.316;11.558;2023-04-25T13:03:09;2.85;;;0.80;;
30287;SDS011;17103;48.316;11.558;2023-04-25T13:05:36;1.20;;;0.47;;
30287;SDS011;17103;48.316;11.558;2023-04-25T13:08:02;1.67;;;0.60;;
30287;SDS011;17103;48.316;11.558;2023-04-25T13:10:28;2.28;;;0.70;;
30287;SDS011;17103;48.316;11.558;2023-04-25T13:12:53;0.85;;;0.70;;
30287;SDS011;17103;48.316;11.558;2023-04-25T13:15:19;1.15;;;0.60;;
30287;SDS011;17103;48.316;11.558;2023-04-25T13:17:45;0.77;;;0.68;;
30287;SDS011;17103;48.316;11.558;2023-04-25T13:20:11;0.98;;;0.47;;
30287;SDS011;17103;48.316;11.558;2023-04-25T13:22:39;1.33;;;0.40;;
30287;SDS011;17103;48.316;11.558;2023-04-25T13:25:05;0.75;;;0.30;;
30287;SDS011;17103;48.316;11.558;2023-04-25T13:27:33;0.47;;;0.30;;
30287;SDS011;17103;48.316;11.558;2023-04-25T13:30:02;0.28;;;0.10;;
30287;SDS011;17103;48.316;11.558;2023-04-25T13:32:35;0.10;;;0.10;;
30287;SDS011;17103;48.316;11.558;2023-04-25T13:35:20;0.52;;;0.20;;
30287;SDS011;17103;48.316;11.558;2023-04-25T13:37:45;0.30;;;0.20;;
30287;SDS011;17103;48.316;11.558;2023-04-25T13:40:11;0.32;;;0.17;;
30287;SDS011;17103;48.316;11.558;2023-04-25T13:42:37;0.30;;;0.10;;
30287;SDS011;17103;48.316;11.558;2023-04-25T13:45:03;0.28;;;0.20;;
30287;SDS011;17103;48.316;11.558;2023-04-25T13:47:29;0.68;;;0.22;;
30287;SDS011;17103;48.316;11.558;2023-04-25T13:49:56;0.40;;;0.20;;
30287;SDS011;17103;48.316;11.558;2023-04-25T13:52:22;0.47;;;0.20;;
30287;SDS011;17103;48.316;11.558;2023-04-25T13:54:52;0.63;;;0.40;;
30287;SDS011;17103;48.316;11.558;2023-04-25T13:57:18;0.35;;;0.28;;
30287;SDS011;17103;48.316;11.558;2023-04-25T13:59:45;1.20;;;0.20;;
30287;SDS011;17103;48.316;11.558;2023-04-25T14:02:11;1.50;;;0.30;;
30287;SDS011;17103;48.316;11.558;2023-04-25T14:04:37;1.40;;;0.30;;
30287;SDS011;17103;48.316;11.558;2023-04-25T14:07:03;1.17;;;0.60;;
30287;SDS011;17103;48.316;11.558;2023-04-25T14:09:30;1.25;;;0.40;;
30287;SDS011;17103;48.316;11.558;2023-04-25T14:11:56;1.80;;;0.55;;
30287;SDS011;17103;48.316;11.558;2023-04-25T14:14:22;1.77;;;0.60;;
30287;SDS011;17103;48.316;11.558;2023-04-25T14:16:48;0.80;;;0.50;;
30287;SDS011;17103;48.316;11.558;2023-04-25T14:19:15;0.68;;;0.50;;
30287;SDS011;17103;48.316;11.558;2023-04-25T14:21:41;1.20;;;0.50;;
30287;SDS011;17103;48.316;11.558;2023-04-25T14:24:08;1.30;;;0.50;;
30287;SDS011;17103;48.316;11.558;2023-04-25T14:26:34;1.05;;;0.60;;
30287;SDS011;17103;48.316;11.558;2023-04-25T14:29:06;1.48;;;0.85;;
30287;SDS011;17103;48.316;11.558;2023-04-25T14:31:32;1.10;;;0.50;;
30287;SDS011;17103;48.316;11.558;2023-04-25T14:33:59;0.70;;;0.50;;
30287;SDS011;17103;48.316;11.558;2023-04-25T14:36:26;0.40;;;0.40;;
30287;SDS011;17103;48.316;11.558;2023-04-25T14:38:53;0.30;;;0.30;;
30287;SDS011;17103;48.316;11.558;2023-04-25T14:41:18;1.33;;;0.45;;
30287;SDS011;17103;48.316;11.558;2023-04-25T14:43:44;0.82;;;0.43;;
30287;SDS011;17103;48.316;11.558;2023-04-25T14:46:10;0.57;;;0.50;;
30287;SDS011;17103;48.316;11.558;2023-04-25T14:48:36;1.55;;;0.60;;
30287;SDS011;17103;48.316;11.558;2023-04-25T14:51:04;1.30;;;0.70;;
30287;SDS011;17103;48.316;11.558;2023-04-25T14:53:31;0.90;;;0.43;;